Time;durP1;ratioP1;P1;durP2;ratioP2;P2;SDS_P1;SDS_P2;PMS_P1;PMS_P2;Temp;Humidity;BMP_temperature;BMP_pressure;BME280_temperature;BME280_humidity;BME280_pressure;Samples;Min_cycle;Max_cycle;Signal;HPM_P1;HPM_P2
2022/11/30 00:00:02;;;;;;;22.65;17.15;;;5.90;99.90;;;;;;5005992;28;20413;-76
2022/11/30 00:02:29;;;;;;;26.73;19.03;;;5.80;99.90;;;;;;4988784;28;20452;-76
2022/11/30 00:04:54;;;;;;;25.95;18.25;;;5.60;99.90;;;;;;4987011;28;20773;-75
2022/11/30 00:07:20;;;;;;;24.38;17.73;;;5.70;99.90;;;;;;4986645;28;20410;-76
2022/11/30 00:09:46;;;;;;;24.45;17.30;;;5.60;99.90;;;;;;4987020;28;20426;-77
2022/11/30 00:12:11;;;;;;;25.23;19.33;;;5.60;99.90;;;;;;4969752;28;20846;-76
2022/11/30 00:14:37;;;;;;;27.00;19.03;;;5.70;99.90;;;;;;4953227;28;21047;-76
2022/11/30 00:17:03;;;;;;;25.00;20.10;;;5.50;99.90;;;;;;4951981;28;20506;-76
2022/11/30 00:19:28;;;;;;;26.33;19.83;;;5.50;99.90;;;;;;4953274;28;20411;-76
2022/11/30 00:21:54;;;;;;;29.70;21.70;;;5.70;99.90;;;;;;4969286;28;20864;-77
2022/11/30 00:24:19;;;;;;;28.57;22.60;;;5.50;99.90;;;;;;4987017;28;20413;-77
2022/11/30 00:26:45;;;;;;;29.43;19.90;;;5.60;99.90;;;;;;4969635;28;20418;-77
2022/11/30 00:29:11;;;;;;;30.40;21.17;;;5.60;99.90;;;;;;4969696;28;20474;-76
2022/11/30 00:31:37;;;;;;;28.90;21.15;;;5.50;99.90;;;;;;4967966;28;20575;-76
2022/11/30 00:34:03;;;;;;;25.50;19.02;;;5.60;99.90;;;;;;4969147;28;20414;-76
2022/11/30 00:36:28;;;;;;;26.17;20.25;;;5.50;99.90;;;;;;4986336;28;20421;-77
2022/11/30 00:38:54;;;;;;;26.38;19.52;;;5.50;99.90;;;;;;4953449;28;20501;-76
2022/11/30 00:41:20;;;;;;;29.70;21.95;;;5.60;99.90;;;;;;4969065;28;20489;-76
2022/11/30 00:43:46;;;;;;;23.58;18.48;;;5.50;99.90;;;;;;4986972;28;20411;-76
2022/11/30 00:46:12;;;;;;;28.85;20.65;;;5.60;99.90;;;;;;4985490;28;20461;-77
2022/11/30 00:48:38;;;;;;;29.85;21.90;;;5.70;99.90;;;;;;4986421;28;20816;-76
2022/11/30 00:51:05;;;;;;;25.83;20.13;;;5.70;99.90;;;;;;4969122;28;20439;-76
2022/11/30 00:53:31;;;;;;;32.27;22.67;;;5.80;99.90;;;;;;4952639;28;20429;-78
2022/11/30 00:55:57;;;;;;;33.47;22.75;;;5.90;99.90;;;;;;4986376;28;20411;-76
2022/11/30 00:58:22;;;;;;;24.67;19.63;;;5.90;99.90;;;;;;4985854;28;20799;-76
2022/11/30 01:00:48;;;;;;;26.70;21.03;;;6.00;99.90;;;;;;4986015;28;20421;-77
2022/11/30 01:03:14;;;;;;;26.67;21.37;;;6.10;99.90;;;;;;5005995;28;20937;-76
2022/11/30 01:05:42;;;;;;;28.33;22.80;;;6.10;99.90;;;;;;5005598;28;20659;-77
2022/11/30 01:08:09;;;;;;;30.20;21.55;;;6.10;99.90;;;;;;5006130;28;21090;-76
2022/11/30 01:10:37;;;;;;;27.08;20.92;;;6.20;99.90;;;;;;5005686;28;20481;-76
2022/11/30 01:13:03;;;;;;;26.45;20.60;;;6.10;99.90;;;;;;5006511;28;20908;-76
2022/11/30 01:15:29;;;;;;;30.08;22.30;;;6.20;99.90;;;;;;5004400;28;20401;-76
2022/11/30 01:17:57;;;;;;;27.27;20.95;;;6.00;99.90;;;;;;4988505;28;20471;-77
2022/11/30 01:20:23;;;;;;;26.38;20.73;;;6.10;99.90;;;;;;5005935;28;20463;-77
2022/11/30 01:22:49;;;;;;;29.87;23.77;;;6.30;99.90;;;;;;5005503;28;20971;-77
2022/11/30 01:25:14;;;;;;;30.63;21.88;;;6.10;99.90;;;;;;5006131;28;20463;-76
2022/11/30 01:27:40;;;;;;;35.67;23.27;;;6.10;99.90;;;;;;5005763;28;20409;-77
2022/11/30 01:30:06;;;;;;;32.33;23.05;;;6.40;99.90;;;;;;4991510;28;20414;-76
2022/11/30 01:32:32;;;;;;;31.60;23.05;;;6.20;99.90;;;;;;4989483;28;20466;-77
2022/11/30 01:34:57;;;;;;;28.53;22.73;;;6.10;99.90;;;;;;4956316;28;20449;-76
2022/11/30 01:37:23;;;;;;;33.37;23.43;;;6.30;99.90;;;;;;4971286;28;20410;-76
2022/11/30 01:39:49;;;;;;;32.53;23.43;;;6.40;99.90;;;;;;4990141;28;20455;-76
2022/11/30 01:42:17;;;;;;;31.70;23.23;;;6.30;99.90;;;;;;4972557;28;20497;-76
2022/11/30 01:44:55;;;;;;;31.20;23.20;;;6.40;99.90;;;;;;4988904;28;20407;-77
2022/11/30 01:47:36;;;;;;;25.08;20.02;;;6.50;99.90;;;;;;4989697;28;20417;-77
2022/11/30 01:50:12;;;;;;;26.73;20.15;;;6.40;99.90;;;;;;4972267;28;20643;-74
2022/11/30 01:52:42;;;;;;;26.63;20.67;;;6.60;99.90;;;;;;4971618;28;21000;-77
2022/11/30 01:55:17;;;;;;;31.17;22.60;;;6.50;99.90;;;;;;4989433;28;20421;-78
2022/11/30 01:58:02;;;;;;;28.52;21.83;;;6.60;99.90;;;;;;4972320;28;20426;-74
2022/11/30 02:00:28;;;;;;;30.13;22.42;;;6.50;99.90;;;;;;4987765;28;20913;-75
2022/11/30 02:03:18;;;;;;;30.08;22.27;;;6.50;99.90;;;;;;4989113;28;20611;-75
2022/11/30 02:05:45;;;;;;;29.80;23.25;;;6.40;99.90;;;;;;4989305;28;20497;-76
2022/11/30 02:08:11;;;;;;;29.37;22.70;;;6.50;99.90;;;;;;4989061;28;20422;-76
2022/11/30 02:10:46;;;;;;;31.13;22.98;;;6.50;99.90;;;;;;4989318;28;20481;-77
2022/11/30 02:13:33;;;;;;;30.75;23.38;;;6.60;99.90;;;;;;4989587;28;20905;-76
2022/11/30 02:16:17;;;;;;;28.50;21.90;;;6.50;99.90;;;;;;4988112;28;20403;-75
2022/11/30 02:18:57;;;;;;;26.02;20.58;;;6.40;99.90;;;;;;4990695;28;20431;-77
2022/11/30 02:21:31;;;;;;;29.75;22.40;;;6.50;99.90;;;;;;4989474;28;20408;-77
2022/11/30 02:24:41;;;;;;;26.55;21.75;;;6.50;99.90;;;;;;4972037;28;20449;-77
2022/11/30 02:27:09;;;;;;;31.63;22.80;;;6.20;99.90;;;;;;4947546;29;20418;-75
2022/11/30 02:30:08;;;;;;;26.17;21.30;;;6.20;99.90;;;;;;4981955;28;20433;-76
2022/11/30 02:33:04;;;;;;;35.58;24.30;;;6.30;99.90;;;;;;4970699;28;20710;-76
2022/11/30 02:35:37;;;;;;;32.37;23.27;;;6.30;99.90;;;;;;4988551;28;20494;-77
2022/11/30 02:38:04;;;;;;;33.65;24.23;;;6.20;99.90;;;;;;4988993;28;20894;-78
2022/11/30 02:40:30;;;;;;;36.27;25.40;;;6.10;99.90;;;;;;4971006;28;20450;-77
2022/11/30 02:42:58;;;;;;;30.95;23.65;;;6.30;99.90;;;;;;4986413;28;20437;-76
2022/11/30 02:45:45;;;;;;;29.37;21.17;;;6.00;99.90;;;;;;4969490;28;20529;-76
2022/11/30 02:48:15;;;;;;;30.92;22.55;;;5.80;99.90;;;;;;4988769;28;20777;-76
2022/11/30 02:50:51;;;;;;;28.85;21.83;;;5.70;99.90;;;;;;4986801;28;20579;-75
2022/11/30 02:53:18;;;;;;;28.90;20.83;;;5.60;99.90;;;;;;4988217;28;20411;-77
2022/11/30 02:55:43;;;;;;;30.17;21.70;;;5.40;99.90;;;;;;4989660;28;20446;-76
2022/11/30 02:58:10;;;;;;;29.40;21.20;;;5.30;99.90;;;;;;4988954;28;20803;-75
2022/11/30 03:00:35;;;;;;;31.65;22.42;;;5.50;99.90;;;;;;4986867;28;20812;-77
2022/11/30 03:03:01;;;;;;;28.30;21.33;;;5.60;99.90;;;;;;4987956;28;20406;-76
2022/11/30 03:05:27;;;;;;;26.55;21.63;;;5.50;99.90;;;;;;4987897;28;20411;-76
2022/11/30 03:07:52;;;;;;;28.88;20.27;;;5.50;99.90;;;;;;4988011;28;20460;-79
2022/11/30 03:10:18;;;;;;;26.73;20.48;;;5.40;99.90;;;;;;4987596;28;20429;-78
2022/11/30 03:12:43;;;;;;;30.65;20.63;;;5.00;99.90;;;;;;4988134;28;20882;-76
2022/11/30 03:15:10;;;;;;;26.92;20.42;;;4.90;99.90;;;;;;4969959;28;20449;-78
2022/11/30 03:17:35;;;;;;;26.60;19.17;;;5.00;99.90;;;;;;4978668;28;20511;-76
2022/11/30 03:20:01;;;;;;;30.43;19.57;;;5.20;99.90;;;;;;5007466;28;20974;-77
2022/11/30 03:22:27;;;;;;;36.50;22.43;;;5.10;99.90;;;;;;5006977;28;20413;-76
2022/11/30 03:24:52;;;;;;;24.70;19.50;;;5.10;99.90;;;;;;5007372;28;20413;-76
2022/11/30 03:27:18;;;;;;;27.33;19.93;;;5.20;99.90;;;;;;5007290;28;20408;-77
2022/11/30 03:29:43;;;;;;;27.20;19.33;;;5.30;99.90;;;;;;5006850;28;20439;-76
2022/11/30 03:32:09;;;;;;;27.50;19.37;;;5.30;99.90;;;;;;5007186;28;20840;-76
2022/11/30 03:34:35;;;;;;;32.17;21.90;;;5.40;99.90;;;;;;5007208;28;20401;-78
2022/11/30 03:37:00;;;;;;;33.90;21.53;;;5.30;99.90;;;;;;4989944;28;20858;-76
2022/11/30 03:39:26;;;;;;;67.37;19.40;;;5.20;99.90;;;;;;4989583;28;20457;-76
2022/11/30 03:41:52;;;;;;;139.60;20.75;;;5.10;99.90;;;;;;5007038;28;20416;-79
2022/11/30 03:44:17;;;;;;;162.90;19.13;;;4.80;99.90;;;;;;5006413;28;20426;-80
2022/11/30 03:46:43;;;;;;;142.23;18.50;;;4.80;99.90;;;;;;4988293;28;20517;-76
2022/11/30 03:49:09;;;;;;;109.67;15.60;;;4.70;99.90;;;;;;4987882;28;20434;-76
2022/11/30 03:51:34;;;;;;;71.03;13.50;;;4.70;99.90;;;;;;4969878;28;20964;-77
2022/11/30 03:54:00;;;;;;;97.50;16.80;;;4.60;99.90;;;;;;4987210;28;20774;-77
2022/11/30 03:56:26;;;;;;;168.30;22.97;;;4.50;99.90;;;;;;4986628;28;20398;-77
2022/11/30 03:58:52;;;;;;;24.00;10.52;;;4.50;99.90;;;;;;4987404;28;21004;-77
2022/11/30 04:01:22;;;;;;;16.05;11.52;;;4.80;99.90;;;;;;4968992;28;20449;-80
2022/11/30 04:03:50;;;;;;;30.70;12.07;;;4.30;99.90;;;;;;4987449;28;20398;-77
2022/11/30 04:06:16;;;;;;;137.32;18.92;;;4.10;99.90;;;;;;4987761;28;20423;-76
2022/11/30 04:08:42;;;;;;;78.88;16.65;;;4.40;99.90;;;;;;4986778;28;20414;-76
2022/11/30 04:11:08;;;;;;;62.57;14.93;;;4.40;99.90;;;;;;4969667;28;20449;-76
2022/11/30 04:13:35;;;;;;;62.97;15.27;;;4.40;99.90;;;;;;4986429;28;20415;-76
2022/11/30 04:16:01;;;;;;;44.37;15.60;;;4.70;99.90;;;;;;4986323;28;20503;-76
2022/11/30 04:18:28;;;;;;;79.55;17.45;;;4.40;99.90;;;;;;4954189;28;20414;-77
2022/11/30 04:20:56;;;;;;;28.92;13.57;;;4.60;99.90;;;;;;4969803;28;20414;-76
2022/11/30 04:23:23;;;;;;;20.77;13.85;;;4.50;99.90;;;;;;4986489;28;20410;-76
2022/11/30 04:25:49;;;;;;;17.77;12.98;;;4.70;99.90;;;;;;4986910;28;20465;-76
2022/11/30 04:28:16;;;;;;;16.50;12.93;;;4.60;99.90;;;;;;4970571;28;20464;-76
2022/11/30 04:30:42;;;;;;;16.15;13.55;;;4.70;99.90;;;;;;4969330;28;20840;-77
2022/11/30 04:33:08;;;;;;;16.95;13.05;;;4.70;99.90;;;;;;4969503;28;20426;-76
2022/11/30 04:35:40;;;;;;;17.13;13.43;;;4.70;99.90;;;;;;4969090;28;20464;-76
2022/11/30 04:38:05;;;;;;;17.80;13.55;;;4.50;99.90;;;;;;4986709;28;20465;-75
2022/11/30 04:40:31;;;;;;;15.17;13.17;;;4.50;99.90;;;;;;4986738;28;20414;-75
2022/11/30 04:42:57;;;;;;;16.07;12.87;;;4.40;99.90;;;;;;4986530;28;20414;-75
2022/11/30 04:45:22;;;;;;;17.70;13.47;;;4.60;99.90;;;;;;4985158;28;20438;-75
2022/11/30 04:47:48;;;;;;;30.47;15.27;;;4.70;99.90;;;;;;4998255;28;20851;-78
2022/11/30 04:50:13;;;;;;;19.30;14.20;;;4.70;99.90;;;;;;5006498;28;20405;-75
2022/11/30 04:52:39;;;;;;;43.73;15.97;;;4.50;99.90;;;;;;5005606;28;20425;-76
2022/11/30 04:55:05;;;;;;;21.73;15.23;;;4.50;99.90;;;;;;4988483;28;20414;-78
2022/11/30 04:57:31;;;;;;;23.83;16.13;;;4.70;99.90;;;;;;5005751;28;20415;-75
2022/11/30 04:59:56;;;;;;;17.15;14.35;;;4.70;99.90;;;;;;5005523;28;20397;-76
2022/11/30 05:02:22;;;;;;;20.13;14.43;;;4.70;99.90;;;;;;5006129;28;20776;-76
2022/11/30 05:04:48;;;;;;;19.70;16.65;;;4.80;99.90;;;;;;4989940;28;20496;-79
2022/11/30 05:07:14;;;;;;;20.33;15.70;;;4.90;99.90;;;;;;4992865;28;20455;-78
2022/11/30 05:09:40;;;;;;;17.77;15.13;;;4.80;99.90;;;;;;5009616;28;20420;-76
2022/11/30 05:12:05;;;;;;;18.50;14.50;;;4.80;99.90;;;;;;4992488;28;20522;-76
2022/11/30 05:14:31;;;;;;;14.83;12.83;;;4.80;99.90;;;;;;5008990;28;20509;-76
2022/11/30 05:16:57;;;;;;;16.30;13.67;;;4.70;99.90;;;;;;4988665;28;20817;-76
2022/11/30 05:19:22;;;;;;;17.73;14.53;;;4.90;99.90;;;;;;4989984;28;20413;-75
2022/11/30 05:21:48;;;;;;;14.77;13.17;;;4.80;99.90;;;;;;4990185;28;20476;-76
2022/11/30 05:24:14;;;;;;;18.00;13.90;;;4.90;99.90;;;;;;4990861;28;20410;-76
2022/11/30 05:26:39;;;;;;;16.53;14.17;;;4.90;99.90;;;;;;4972701;28;20414;-77
2022/11/30 05:29:05;;;;;;;16.17;13.27;;;5.10;99.90;;;;;;4989625;28;20442;-77
2022/11/30 05:31:31;;;;;;;15.13;13.50;;;5.10;99.90;;;;;;4989017;28;20505;-76
2022/11/30 05:33:57;;;;;;;13.93;11.88;;;5.00;99.90;;;;;;4989996;28;20415;-75
2022/11/30 05:36:23;;;;;;;14.95;12.98;;;5.10;99.90;;;;;;4989449;28;20406;-76
2022/11/30 05:38:48;;;;;;;14.50;12.90;;;5.20;99.90;;;;;;4989682;28;20501;-77
2022/11/30 05:41:14;;;;;;;15.93;13.75;;;5.30;99.90;;;;;;4989610;28;20462;-78
2022/11/30 05:43:40;;;;;;;15.13;13.32;;;5.30;99.90;;;;;;4989733;28;20480;-76
2022/11/30 05:46:08;;;;;;;15.82;13.70;;;5.30;99.90;;;;;;4987777;28;21031;-76
2022/11/30 05:48:35;;;;;;;16.75;13.27;;;5.40;99.90;;;;;;4989593;28;20394;-77
2022/11/30 05:51:12;;;;;;;16.75;12.85;;;5.30;99.90;;;;;;4989945;28;20437;-76
2022/11/30 05:53:38;;;;;;;14.30;12.73;;;5.30;99.90;;;;;;4989938;28;20411;-76
2022/11/30 05:56:06;;;;;;;16.17;12.82;;;5.40;99.90;;;;;;4989581;28;20406;-77
2022/11/30 05:58:32;;;;;;;18.37;14.33;;;5.40;99.90;;;;;;4989661;28;20418;-77
2022/11/30 06:00:58;;;;;;;17.50;14.45;;;5.50;99.90;;;;;;4971113;28;20411;-76
2022/11/30 06:03:24;;;;;;;16.48;13.73;;;5.50;99.90;;;;;;4972427;28;20752;-75
2022/11/30 06:05:51;;;;;;;20.70;16.38;;;5.40;99.90;;;;;;4989597;28;20485;-76
2022/11/30 06:08:18;;;;;;;24.02;17.15;;;5.40;99.90;;;;;;4989634;28;20514;-75
2022/11/30 06:10:43;;;;;;;22.90;17.00;;;5.60;99.90;;;;;;4989721;28;20433;-75
2022/11/30 06:13:09;;;;;;;24.77;18.50;;;5.60;99.90;;;;;;4971765;28;20410;-78
2022/11/30 06:15:41;;;;;;;27.83;20.48;;;5.50;99.90;;;;;;4987462;28;20796;-75
2022/11/30 06:18:09;;;;;;;29.13;21.25;;;5.80;99.90;;;;;;4990508;28;20417;-75
2022/11/30 06:20:34;;;;;;;29.75;20.83;;;5.90;99.90;;;;;;5008628;28;20501;-75
2022/11/30 06:23:00;;;;;;;27.70;21.85;;;5.90;99.90;;;;;;5008633;28;20487;-77
2022/11/30 06:25:26;;;;;;;30.05;22.30;;;6.00;99.90;;;;;;5008358;28;20416;-74
2022/11/30 06:27:53;;;;;;;30.70;21.30;;;5.90;99.90;;;;;;4973852;28;20409;-74
2022/11/30 06:30:19;;;;;;;29.20;19.33;;;6.00;99.90;;;;;;5007096;28;20444;-76
2022/11/30 06:32:46;;;;;;;28.80;19.67;;;5.80;99.90;;;;;;5008119;28;20934;-75
2022/11/30 06:35:12;;;;;;;28.88;19.63;;;5.80;99.90;;;;;;5008363;28;20493;-77
2022/11/30 06:37:38;;;;;;;27.75;20.08;;;5.90;99.90;;;;;;4990664;28;20490;-75
2022/11/30 06:40:04;;;;;;;27.27;20.55;;;5.70;99.90;;;;;;5008710;28;20918;-75
2022/11/30 06:42:30;;;;;;;30.65;20.85;;;5.90;99.90;;;;;;5008042;28;20404;-76
2022/11/30 06:44:56;;;;;;;37.17;24.45;;;5.80;99.90;;;;;;5007553;28;20795;-76
2022/11/30 06:47:22;;;;;;;45.95;27.73;;;5.90;99.90;;;;;;5007399;28;20420;-75
2022/11/30 06:49:48;;;;;;;60.17;33.55;;;6.10;99.90;;;;;;4991005;28;20416;-79
2022/11/30 06:52:14;;;;;;;58.50;34.30;;;6.20;99.90;;;;;;5008337;28;20487;-75
2022/11/30 06:54:39;;;;;;;63.83;35.13;;;6.20;99.90;;;;;;5007575;28;20912;-75
2022/11/30 06:57:05;;;;;;;48.07;30.27;;;6.00;99.90;;;;;;4990459;28;20417;-76
2022/11/30 06:59:31;;;;;;;42.03;26.65;;;6.10;99.90;;;;;;4989927;28;20412;-75
2022/11/30 07:01:56;;;;;;;44.53;27.55;;;6.20;99.90;;;;;;4990701;28;20791;-75
2022/11/30 07:04:22;;;;;;;46.92;27.00;;;6.30;99.90;;;;;;5006397;28;20428;-76
2022/11/30 07:06:47;;;;;;;39.75;26.58;;;6.10;99.90;;;;;;5008458;28;20935;-79
2022/11/30 07:09:13;;;;;;;34.13;25.50;;;6.30;99.90;;;;;;4990292;28;20421;-76
2022/11/30 07:11:39;;;;;;;39.35;26.65;;;6.30;99.90;;;;;;4990080;28;20437;-76
2022/11/30 07:14:05;;;;;;;42.55;26.35;;;6.20;99.90;;;;;;5007358;28;20432;-76
2022/11/30 07:16:31;;;;;;;43.83;27.47;;;6.20;99.90;;;;;;5006780;28;20412;-76
2022/11/30 07:18:56;;;;;;;42.53;27.57;;;6.40;99.90;;;;;;5007927;28;20876;-76
2022/11/30 07:21:22;;;;;;;43.13;27.10;;;6.20;99.90;;;;;;5007601;28;20424;-76
2022/11/30 07:26:32;;;;;;;43.83;25.75;;;6.20;99.90;;;;;;5006777;28;20962;-75
2022/11/30 07:28:58;;;;;;;45.13;27.20;;;6.30;99.90;;;;;;5005552;28;20515;-75
2022/11/30 07:31:29;;;;;;;54.88;30.83;;;6.30;99.90;;;;;;5007291;28;20515;-76
2022/11/30 07:33:57;;;;;;;45.30;26.43;;;6.30;99.90;;;;;;5007307;28;20401;-76
2022/11/30 07:36:24;;;;;;;44.53;26.45;;;6.40;99.90;;;;;;5006672;28;20424;-76
2022/11/30 07:38:50;;;;;;;51.88;29.98;;;6.40;99.90;;;;;;5006857;28;20470;-75
2022/11/30 07:41:16;;;;;;;51.00;30.23;;;6.40;99.90;;;;;;5007400;28;20405;-75
2022/11/30 07:43:42;;;;;;;53.28;30.42;;;6.40;99.90;;;;;;4988284;28;20435;-75
2022/11/30 07:46:12;;;;;;;79.60;33.38;;;6.30;99.90;;;;;;5002807;28;20425;-76
2022/11/30 07:48:38;;;;;;;61.67;33.13;;;6.50;99.90;;;;;;4969969;28;20770;-75
2022/11/30 07:51:06;;;;;;;50.20;31.70;;;6.40;99.90;;;;;;4953847;28;20434;-76
2022/11/30 07:53:32;;;;;;;58.47;32.40;;;6.40;99.90;;;;;;4969630;28;20981;-76
2022/11/30 07:56:06;;;;;;;54.27;32.83;;;6.30;99.90;;;;;;4969464;28;20418;-75
2022/11/30 07:58:32;;;;;;;52.90;30.38;;;6.30;99.90;;;;;;4986476;28;20415;-75
2022/11/30 08:01:07;;;;;;;53.08;32.00;;;6.50;99.90;;;;;;4987047;28;20465;-74
2022/11/30 08:03:33;;;;;;;53.42;32.63;;;6.50;99.90;;;;;;4996070;28;20432;-75
2022/11/30 08:06:05;;;;;;;51.95;31.73;;;6.50;99.90;;;;;;4972404;28;20504;-77
2022/11/30 08:08:32;;;;;;;53.60;31.53;;;6.50;99.90;;;;;;4984957;28;20418;-75
2022/11/30 08:10:59;;;;;;;52.55;30.83;;;6.60;99.90;;;;;;4969530;28;20777;-75
2022/11/30 08:13:26;;;;;;;50.35;30.75;;;6.30;99.90;;;;;;4968071;28;20456;-78
2022/11/30 08:15:52;;;;;;;56.50;31.20;;;6.50;99.90;;;;;;4985391;28;20399;-76
2022/11/30 08:18:17;;;;;;;52.10;31.67;;;6.30;99.90;;;;;;4948152;28;20481;-79
2022/11/30 08:20:44;;;;;;;54.95;32.80;;;6.20;99.90;;;;;;4947142;29;20801;-75
2022/11/30 08:23:10;;;;;;;62.60;33.30;;;6.60;99.90;;;;;;4947891;29;20433;-78
2022/11/30 08:25:37;;;;;;;53.20;31.67;;;6.70;99.90;;;;;;4947711;29;20773;-76
2022/11/30 08:28:03;;;;;;;51.97;31.55;;;6.40;99.90;;;;;;4946860;29;21035;-76
2022/11/30 08:30:29;;;;;;;55.95;33.58;;;6.50;99.90;;;;;;4945760;29;20524;-78
2022/11/30 08:32:55;;;;;;;51.00;30.52;;;6.40;99.90;;;;;;4947325;29;20458;-75
2022/11/30 08:35:21;;;;;;;48.30;29.95;;;6.50;99.90;;;;;;4947599;29;20409;-76
2022/11/30 08:37:47;;;;;;;50.53;30.08;;;6.20;99.90;;;;;;4946908;29;20425;-76
2022/11/30 08:40:13;;;;;;;47.08;30.58;;;6.50;99.90;;;;;;4946955;28;20429;-75
2022/11/30 08:42:38;;;;;;;47.88;29.30;;;6.30;99.90;;;;;;4946208;29;20410;-76
2022/11/30 08:45:05;;;;;;;47.03;27.95;;;6.20;99.90;;;;;;4945237;29;20422;-75
2022/11/30 08:47:30;;;;;;;39.88;25.73;;;6.20;99.90;;;;;;4977651;28;20414;-75
2022/11/30 08:49:57;;;;;;;44.97;28.55;;;6.40;99.90;;;;;;4984740;28;20840;-75
2022/11/30 08:52:23;;;;;;;40.17;26.17;;;6.20;99.90;;;;;;4984676;28;20437;-75
2022/11/30 08:54:49;;;;;;;42.65;27.35;;;6.50;99.90;;;;;;4986390;28;20421;-76
2022/11/30 08:57:16;;;;;;;47.50;28.33;;;6.40;99.90;;;;;;4987236;28;20880;-77
2022/11/30 08:59:41;;;;;;;42.50;26.25;;;6.50;99.90;;;;;;4985849;28;20533;-75
2022/11/30 09:02:10;;;;;;;44.03;27.03;;;6.60;99.90;;;;;;4985284;28;21058;-76
2022/11/30 09:04:35;;;;;;;40.33;25.90;;;6.40;99.90;;;;;;4986107;28;20486;-76
2022/11/30 09:07:02;;;;;;;42.30;26.80;;;6.70;99.90;;;;;;4986446;28;21144;-75
2022/11/30 09:09:28;;;;;;;40.33;24.88;;;6.40;99.90;;;;;;4997750;28;20409;-75
2022/11/30 09:11:54;;;;;;;40.92;26.95;;;6.40;99.90;;;;;;5005574;28;20806;-78
2022/11/30 09:14:19;;;;;;;43.58;26.63;;;6.50;99.90;;;;;;4986848;28;20472;-75
2022/11/30 09:16:47;;;;;;;38.85;25.98;;;6.70;99.90;;;;;;4996532;28;20460;-75
2022/11/30 09:19:12;;;;;;;39.37;25.30;;;6.70;99.90;;;;;;4968644;28;20829;-76
2022/11/30 09:21:38;;;;;;;38.80;25.10;;;6.70;99.90;;;;;;4952771;28;20422;-77
2022/11/30 09:24:04;;;;;;;38.97;25.27;;;6.80;99.90;;;;;;4986347;28;20824;-77
2022/11/30 09:26:30;;;;;;;41.70;25.80;;;6.60;99.90;;;;;;4987168;28;20461;-75
2022/11/30 09:28:55;;;;;;;39.53;26.42;;;6.60;99.90;;;;;;4968169;28;20456;-76
2022/11/30 09:31:25;;;;;;;40.03;24.57;;;6.70;99.90;;;;;;4985697;28;20433;-75
2022/11/30 09:33:52;;;;;;;37.97;24.60;;;6.70;99.90;;;;;;4986003;28;20817;-75
2022/11/30 09:36:20;;;;;;;37.58;24.70;;;6.60;99.90;;;;;;4986209;28;20494;-77
2022/11/30 09:38:46;;;;;;;39.40;24.35;;;6.60;99.90;;;;;;4986581;28;20442;-76
2022/11/30 09:41:43;;;;;;;40.73;24.70;;;6.70;99.90;;;;;;4968834;28;20413;-76
2022/11/30 09:44:17;;;;;;;35.47;23.63;;;7.00;99.90;;;;;;4951868;28;20577;-76
2022/11/30 09:46:53;;;;;;;39.92;25.90;;;6.90;99.90;;;;;;4968894;28;20750;-76
2022/11/30 09:49:25;;;;;;;39.00;25.00;;;7.10;99.90;;;;;;4985844;28;20466;-77
2022/11/30 09:51:54;;;;;;;35.28;23.05;;;7.00;99.90;;;;;;4988438;28;20525;-77
2022/11/30 09:54:39;;;;;;;38.30;24.80;;;6.80;99.90;;;;;;4989547;28;20765;-76
2022/11/30 09:57:28;;;;;;;38.43;24.73;;;7.00;99.90;;;;;;4972625;28;20463;-77
2022/11/30 09:59:55;;;;;;;36.83;23.45;;;6.90;99.90;;;;;;4988740;28;20406;-76
2022/11/30 10:02:27;;;;;;;35.97;24.40;;;6.90;99.90;;;;;;4993187;28;20566;-76
2022/11/30 10:04:52;;;;;;;36.28;24.25;;;6.90;99.90;;;;;;5009078;28;20401;-76
2022/11/30 10:07:39;;;;;;;37.13;24.00;;;6.90;99.90;;;;;;4991088;28;20426;-77
2022/11/30 10:10:20;;;;;;;36.55;23.65;;;6.80;99.90;;;;;;5007383;28;20915;-75
2022/11/30 10:12:59;;;;;;;36.17;23.17;;;6.80;99.90;;;;;;5007535;28;20499;-75
2022/11/30 10:15:45;;;;;;;37.80;24.33;;;6.90;99.90;;;;;;4988645;28;20424;-76
2022/11/30 10:18:13;;;;;;;38.95;24.38;;;7.00;99.90;;;;;;4967955;28;20507;-78
2022/11/30 10:20:57;;;;;;;34.83;24.30;;;6.80;99.90;;;;;;4967663;28;20515;-75
2022/11/30 10:23:40;;;;;;;35.77;24.53;;;6.80;99.90;;;;;;4967665;28;20426;-75
2022/11/30 10:26:13;;;;;;;36.58;23.42;;;6.90;99.90;;;;;;4950422;28;20441;-75
2022/11/30 10:28:44;;;;;;;35.65;24.08;;;6.90;99.90;;;;;;4967148;28;20452;-76
2022/11/30 10:31:12;;;;;;;39.17;24.95;;;6.90;99.90;;;;;;4970638;28;20425;-76
2022/11/30 10:34:02;;;;;;;38.53;25.27;;;6.90;99.90;;;;;;4989907;28;20791;-76
2022/11/30 10:36:41;;;;;;;40.45;24.58;;;7.10;99.90;;;;;;5007202;28;20455;-76
2022/11/30 10:39:20;;;;;;;37.65;25.25;;;7.00;99.90;;;;;;5008034;28;20517;-76
2022/11/30 10:41:55;;;;;;;37.30;24.40;;;7.20;99.90;;;;;;5007828;28;20415;-76
2022/11/30 10:44:29;;;;;;;41.65;25.88;;;6.90;99.90;;;;;;4988467;28;20432;-76
2022/11/30 10:47:09;;;;;;;38.08;25.33;;;7.00;99.90;;;;;;4997941;28;20477;-76
2022/11/30 10:49:37;;;;;;;39.78;26.15;;;7.00;99.90;;;;;;4987243;28;20418;-75
2022/11/30 10:52:07;;;;;;;37.45;26.25;;;7.00;99.90;;;;;;4987195;28;20481;-74
2022/11/30 10:54:35;;;;;;;40.97;27.70;;;7.10;99.90;;;;;;4986463;28;20878;-75
2022/11/30 10:57:02;;;;;;;40.50;26.13;;;7.00;99.90;;;;;;4970269;28;20418;-75
2022/11/30 10:59:47;;;;;;;41.40;26.50;;;7.20;99.90;;;;;;4985994;28;20747;-74
2022/11/30 11:02:39;;;;;;;41.88;27.10;;;7.10;99.90;;;;;;4972889;28;20429;-75
2022/11/30 11:05:14;;;;;;;44.72;29.48;;;7.20;99.90;;;;;;4988874;28;20748;-73
2022/11/30 11:07:54;;;;;;;44.97;28.83;;;7.10;99.90;;;;;;4972749;28;20409;-75
2022/11/30 11:10:27;;;;;;;41.83;26.90;;;7.20;99.90;;;;;;4953096;28;1085332;-75
2022/11/30 11:12:54;;;;;;;45.00;28.05;;;7.10;99.90;;;;;;5007707;28;20441;-77
2022/11/30 11:15:31;;;;;;;41.15;26.27;;;7.20;99.90;;;;;;5007858;28;20842;-76
2022/11/30 11:18:15;;;;;;;45.25;29.52;;;7.10;99.90;;;;;;4972808;28;20454;-78
2022/11/30 11:20:44;;;;;;;40.47;28.48;;;7.20;99.90;;;;;;4987994;28;20747;-76
2022/11/30 11:23:40;;;;;;;43.20;28.03;;;7.20;99.90;;;;;;4988225;28;20897;-76
2022/11/30 11:26:15;;;;;;;43.80;28.17;;;7.20;99.90;;;;;;4988340;28;20421;-76
2022/11/30 11:28:44;;;;;;;45.60;28.90;;;7.30;99.90;;;;;;4987235;28;20498;-77
2022/11/30 11:31:43;;;;;;;40.65;27.60;;;7.30;99.90;;;;;;4988103;28;20845;-76
2022/11/30 11:34:33;;;;;;;38.72;28.08;;;7.20;99.90;;;;;;4987983;28;20410;-77
2022/11/30 11:37:32;;;;;;;36.97;26.25;;;7.20;99.90;;;;;;4987786;28;20446;-76
2022/11/30 11:40:07;;;;;;;35.78;25.42;;;7.20;99.90;;;;;;4979851;28;20463;-76
2022/11/30 11:42:41;;;;;;;36.85;26.38;;;7.20;99.90;;;;;;4970501;28;20418;-76
2022/11/30 11:45:19;;;;;;;36.38;26.05;;;7.20;99.90;;;;;;4970076;28;20430;-76
2022/11/30 11:47:45;;;;;;;34.88;25.80;;;7.20;99.90;;;;;;4988055;28;20460;-76
2022/11/30 11:50:11;;;;;;;36.63;25.55;;;7.20;99.90;;;;;;4988055;28;20850;-76
2022/11/30 11:52:37;;;;;;;38.83;26.50;;;7.20;99.90;;;;;;4987557;28;20469;-76
2022/11/30 11:55:15;;;;;;;34.13;25.33;;;7.30;99.90;;;;;;4987883;28;20410;-77
2022/11/30 11:57:48;;;;;;;40.38;27.50;;;7.30;99.90;;;;;;4987261;28;20505;-78
2022/11/30 12:00:25;;;;;;;36.83;27.63;;;7.10;99.90;;;;;;4988344;28;20402;-76
2022/11/30 12:03:18;;;;;;;37.92;27.17;;;7.10;99.90;;;;;;4987456;28;20817;-76
2022/11/30 12:05:50;;;;;;;40.15;28.45;;;7.10;99.90;;;;;;4969241;28;20450;-78
2022/11/30 12:08:43;;;;;;;37.60;27.35;;;7.00;99.90;;;;;;4987846;28;20508;-76
2022/11/30 12:11:26;;;;;;;42.90;28.47;;;7.00;99.90;;;;;;4987406;28;20430;-76
2022/11/30 12:13:52;;;;;;;37.22;28.13;;;7.10;99.90;;;;;;4985702;28;20426;-79
2022/11/30 12:16:37;;;;;;;46.10;30.13;;;7.00;99.90;;;;;;4990130;28;20424;-77
2022/11/30 12:19:14;;;;;;;39.38;28.70;;;7.20;99.90;;;;;;5006660;28;20934;-76
2022/11/30 12:22:02;;;;;;;43.00;28.58;;;7.00;99.90;;;;;;5006678;28;20428;-75
2022/11/30 12:25:07;;;;;;;42.72;29.20;;;7.20;99.90;;;;;;5006145;28;20409;-77
2022/11/30 12:27:44;;;;;;;41.58;29.77;;;7.20;99.90;;;;;;5006602;28;20475;-76
2022/11/30 12:30:35;;;;;;;40.80;28.85;;;7.30;99.90;;;;;;4972836;28;20501;-76
2022/11/30 12:33:15;;;;;;;44.28;31.05;;;7.20;99.90;;;;;;4989484;28;20429;-77
2022/11/30 12:35:59;;;;;;;44.55;32.00;;;7.20;99.90;;;;;;5006029;28;20993;-76
2022/11/30 12:38:46;;;;;;;42.53;31.10;;;7.10;99.90;;;;;;5006186;28;20412;-76
2022/11/30 12:41:12;;;;;;;47.17;33.07;;;7.20;99.90;;;;;;5006487;28;20405;-76
2022/11/30 12:43:59;;;;;;;46.93;33.00;;;7.10;99.90;;;;;;4971478;28;20424;-77
2022/11/30 12:46:37;;;;;;;52.80;36.20;;;7.00;99.90;;;;;;4999495;28;20421;-76
2022/11/30 12:49:32;;;;;;;50.85;36.38;;;7.00;99.90;;;;;;4968524;28;20952;-77
2022/11/30 12:52:13;;;;;;;47.60;34.75;;;7.00;99.90;;;;;;4969115;28;20746;-77